sensor_id;sensor_type;location;lat;lon;timestamp;pressure;altitude;pressure_sealevel;temperature;humidity
51460;BME280;37534;39.772;2.718;2023-06-10T00:00:37;100875.63;;;21.07;100.00
51460;BME280;37534;39.772;2.718;2023-06-10T00:03:03;100875.47;;;20.96;100.00
51460;BME280;37534;39.772;2.718;2023-06-10T00:05:28;100884.94;;;20.98;100.00
51460;BME280;37534;39.772;2.718;2023-06-10T00:07:55;100870.88;;;20.99;100.00
51460;BME280;37534;39.772;2.718;2023-06-10T00:10:22;100866.34;;;20.88;100.00
51460;BME280;37534;39.772;2.718;2023-06-10T00:12:47;100869.31;;;20.84;100.00
51460;BME280;37534;39.772;2.718;2023-06-10T00:15:13;100869.34;;;20.69;100.00
51460;BME280;37534;39.772;2.718;2023-06-10T00:17:39;100880.25;;;20.63;100.00
51460;BME280;37534;39.772;2.718;2023-06-10T00:20:09;100874.84;;;20.52;100.00
51460;BME280;37534;39.772;2.718;2023-06-10T00:22:37;100875.78;;;20.51;100.00
51460;BME280;37534;39.772;2.718;2023-06-10T00:25:05;100873.56;;;20.45;100.00
51460;BME280;37534;39.772;2.718;2023-06-10T00:27:32;100872.06;;;20.41;100.00
51460;BME280;37534;39.772;2.718;2023-06-10T00:30:04;100871.75;;;20.32;100.00
51460;BME280;37534;39.772;2.718;2023-06-10T00:32:35;100868.16;;;20.33;100.00
51460;BME280;37534;39.772;2.718;2023-06-10T00:35:02;100873.44;;;20.46;100.00
51460;BME280;37534;39.772;2.718;2023-06-10T00:37:28;100866.22;;;20.64;100.00
51460;BME280;37534;39.772;2.718;2023-06-10T00:39:54;100856.69;;;20.49;100.00
51460;BME280;37534;39.772;2.718;2023-06-10T00:42:20;100866.72;;;20.42;100.00
51460;BME280;37534;39.772;2.718;2023-06-10T00:44:47;100859.03;;;20.26;100.00
51460;BME280;37534;39.772;2.718;2023-06-10T00:47:13;100869.31;;;20.29;100.00
51460;BME280;37534;39.772;2.718;2023-06-10T00:49:39;100855.75;;;20.23;100.00
51460;BME280;37534;39.772;2.718;2023-06-10T00:52:06;100850.38;;;20.39;100.00
51460;BME280;37534;39.772;2.718;2023-06-10T00:54:32;100846.09;;;20.23;100.00
51460;BME280;37534;39.772;2.718;2023-06-10T00:57:01;100854.94;;;20.22;100.00
51460;BME280;37534;39.772;2.718;2023-06-10T00:59:28;100841.09;;;20.20;100.00
51460;BME280;37534;39.772;2.718;2023-06-10T01:01:54;100845.81;;;20.28;100.00
51460;BME280;37534;39.772;2.718;2023-06-10T01:04:21;100838.53;;;20.06;100.00
51460;BME280;37534;39.772;2.718;2023-06-10T01:10:34;100839.06;;;19.97;100.00
51460;BME280;37534;39.772;2.718;2023-06-10T01:15:03;100848.66;;;19.83;100.00
51460;BME280;37534;39.772;2.718;2023-06-10T01:17:29;100842.47;;;19.70;100.00
51460;BME280;37534;39.772;2.718;2023-06-10T01:19:59;100853.03;;;19.68;100.00
51460;BME280;37534;39.772;2.718;2023-06-10T01:22:27;100849.25;;;19.74;100.00
51460;BME280;37534;39.772;2.718;2023-06-10T01:25:02;100842.69;;;19.67;100.00
51460;BME280;37534;39.772;2.718;2023-06-10T01:27:31;100849.41;;;19.71;100.00
51460;BME280;37534;39.772;2.718;2023-06-10T01:30:27;100833.63;;;19.58;100.00
51460;BME280;37534;39.772;2.718;2023-06-10T01:32:56;100847.16;;;19.50;100.00
51460;BME280;37534;39.772;2.718;2023-06-10T01:35:25;100849.41;;;19.42;100.00
51460;BME280;37534;39.772;2.718;2023-06-10T01:37:53;100852.38;;;19.36;100.00
51460;BME280;37534;39.772;2.718;2023-06-10T01:40:20;100855.22;;;19.33;100.00
51460;BME280;37534;39.772;2.718;2023-06-10T01:42:45;100853.13;;;19.38;100.00
51460;BME280;37534;39.772;2.718;2023-06-10T01:45:11;100861.19;;;19.35;100.00
51460;BME280;37534;39.772;2.718;2023-06-10T01:47:37;100860.44;;;19.47;100.00
51460;BME280;37534;39.772;2.718;2023-06-10T01:50:02;100846.50;;;19.47;100.00
51460;BME280;37534;39.772;2.718;2023-06-10T01:52:28;100862.19;;;19.47;100.00
51460;BME280;37534;39.772;2.718;2023-06-10T01:54:53;100865.03;;;19.29;100.00
51460;BME280;37534;39.772;2.718;2023-06-10T01:57:19;100872.16;;;19.11;100.00
51460;BME280;37534;39.772;2.718;2023-06-10T01:59:44;100865.25;;;18.96;100.00
51460;BME280;37534;39.772;2.718;2023-06-10T02:02:11;100856.53;;;18.95;100.00
51460;BME280;37534;39.772;2.718;2023-06-10T02:04:37;100858.34;;;19.09;100.00
51460;BME280;37534;39.772;2.718;2023-06-10T02:07:03;100870.69;;;19.07;100.00
51460;BME280;37534;39.772;2.718;2023-06-10T02:09:30;100855.72;;;18.95;100.00
51460;BME280;37534;39.772;2.718;2023-06-10T02:11:56;100862.97;;;18.90;100.00
51460;BME280;37534;39.772;2.718;2023-06-10T02:14:21;100865.22;;;18.82;100.00
51460;BME280;37534;39.772;2.718;2023-06-10T02:16:47;100864.09;;;18.86;100.00
51460;BME280;37534;39.772;2.718;2023-06-10T02:19:13;100861.78;;;18.79;100.00
51460;BME280;37534;39.772;2.718;2023-06-10T02:21:39;100854.50;;;18.70;100.00
51460;BME280;37534;39.772;2.718;2023-06-10T02:24:05;100853.63;;;18.86;100.00
51460;BME280;37534;39.772;2.718;2023-06-10T02:26:30;100859.28;;;18.78;100.00
51460;BME280;37534;39.772;2.718;2023-06-10T02:28:57;100851.41;;;18.64;100.00
51460;BME280;37534;39.772;2.718;2023-06-10T02:31:22;100840.22;;;18.46;100.00
51460;BME280;37534;39.772;2.718;2023-06-10T02:33:49;100857.50;;;18.48;100.00
51460;BME280;37534;39.772;2.718;2023-06-10T02:36:14;100844.78;;;18.42;100.00
51460;BME280;37534;39.772;2.718;2023-06-10T02:38:41;100841.50;;;18.38;100.00
51460;BME280;37534;39.772;2.718;2023-06-10T02:41:07;100852.38;;;18.47;100.00
51460;BME280;37534;39.772;2.718;2023-06-10T02:43:32;100836.09;;;18.41;100.00
51460;BME280;37534;39.772;2.718;2023-06-10T02:45:58;100837.28;;;18.52;100.00
51460;BME280;37534;39.772;2.718;2023-06-10T02:48:24;100828.84;;;18.47;100.00
51460;BME280;37534;39.772;2.718;2023-06-10T02:50:50;100828.84;;;18.47;100.00
51460;BME280;37534;39.772;2.718;2023-06-10T02:53:15;100826.25;;;18.47;100.00
51460;BME280;37534;39.772;2.718;2023-06-10T02:55:41;100830.00;;;18.57;100.00
51460;BME280;37534;39.772;2.718;2023-06-10T02:58:08;100828.16;;;18.59;100.00
51460;BME280;37534;39.772;2.718;2023-06-10T03:00:33;100816.69;;;18.46;100.00
51460;BME280;37534;39.772;2.718;2023-06-10T03:02:59;100822.50;;;18.51;100.00
51460;BME280;37534;39.772;2.718;2023-06-10T03:05:28;100818.41;;;18.47;100.00
51460;BME280;37534;39.772;2.718;2023-06-10T03:07:54;100814.88;;;18.48;100.00
51460;BME280;37534;39.772;2.718;2023-06-10T03:10:19;100816.91;;;18.42;100.00
51460;BME280;37534;39.772;2.718;2023-06-10T03:12:45;100821.94;;;18.46;100.00
51460;BME280;37534;39.772;2.718;2023-06-10T03:15:10;100820.78;;;18.35;100.00
51460;BME280;37534;39.772;2.718;2023-06-10T03:17:36;100805.91;;;18.21;100.00
51460;BME280;37534;39.772;2.718;2023-06-10T03:20:02;100812.13;;;18.19;100.00
51460;BME280;37534;39.772;2.718;2023-06-10T03:22:30;100803.81;;;18.12;100.00
51460;BME280;37534;39.772;2.718;2023-06-10T03:24:56;100807.34;;;18.11;100.00
51460;BME280;37534;39.772;2.718;2023-06-10T03:27:22;100813.59;;;18.09;100.00
51460;BME280;37534;39.772;2.718;2023-06-10T03:29:48;100806.66;;;18.23;100.00
51460;BME280;37534;39.772;2.718;2023-06-10T03:32:13;100809.25;;;18.23;100.00
51460;BME280;37534;39.772;2.718;2023-06-10T03:34:40;100822.75;;;18.16;100.00
51460;BME280;37534;39.772;2.718;2023-06-10T03:37:06;100814.16;;;18.14;100.00
51460;BME280;37534;39.772;2.718;2023-06-10T03:39:32;100804.97;;;18.07;100.00
51460;BME280;37534;39.772;2.718;2023-06-10T03:41:58;100809.03;;;18.12;100.00
51460;BME280;37534;39.772;2.718;2023-06-10T03:44:27;100803.41;;;18.04;100.00
51460;BME280;37534;39.772;2.718;2023-06-10T03:46:53;100816.09;;;18.10;100.00
51460;BME280;37534;39.772;2.718;2023-06-10T03:49:19;100814.59;;;18.06;100.00
51460;BME280;37534;39.772;2.718;2023-06-10T03:51:45;100809.44;;;18.04;100.00
51460;BME280;37534;39.772;2.718;2023-06-10T03:54:11;100800.28;;;17.97;100.00
51460;BME280;37534;39.772;2.718;2023-06-10T03:56:36;100802.72;;;18.00;100.00
51460;BME280;37534;39.772;2.718;2023-06-10T03:59:02;100803.63;;;17.99;100.00
51460;BME280;37534;39.772;2.718;2023-06-10T04:01:27;100810.47;;;18.02;100.00
51460;BME280;37534;39.772;2.718;2023-06-10T04:03:53;100809.72;;;18.00;100.00
51460;BME280;37534;39.772;2.718;2023-06-10T04:06:19;100806.84;;;18.04;100.00
51460;BME280;37534;39.772;2.718;2023-06-10T04:08:48;100811.72;;;18.11;100.00
51460;BME280;37534;39.772;2.718;2023-06-10T04:11:13;100813.00;;;18.19;100.00
51460;BME280;37534;39.772;2.718;2023-06-10T04:13:39;100825.38;;;18.16;100.00
51460;BME280;37534;39.772;2.718;2023-06-10T04:16:05;100807.34;;;17.95;100.00
51460;BME280;37534;39.772;2.718;2023-06-10T04:18:30;100828.59;;;18.05;100.00
51460;BME280;37534;39.772;2.718;2023-06-10T04:20:56;100824.88;;;18.09;100.00
51460;BME280;37534;39.772;2.718;2023-06-10T04:23:22;100815.75;;;18.16;100.00
51460;BME280;37534;39.772;2.718;2023-06-10T04:25:48;100828.50;;;18.37;100.00
51460;BME280;37534;39.772;2.718;2023-06-10T04:28:14;100830.56;;;18.48;100.00
51460;BME280;37534;39.772;2.718;2023-06-10T04:30:39;100830.47;;;18.33;100.00
51460;BME280;37534;39.772;2.718;2023-06-10T04:33:05;100833.78;;;18.21;100.00
51460;BME280;37534;39.772;2.718;2023-06-10T04:35:32;100813.00;;;18.19;100.00
51460;BME280;37534;39.772;2.718;2023-06-10T04:37:58;100812.06;;;18.04;100.00
51460;BME280;37534;39.772;2.718;2023-06-10T04:40:23;100824.53;;;17.99;100.00
51460;BME280;37534;39.772;2.718;2023-06-10T04:42:49;100822.34;;;18.08;100.00
51460;BME280;37534;39.772;2.718;2023-06-10T04:45:14;100826.22;;;18.16;100.00
51460;BME280;37534;39.772;2.718;2023-06-10T04:47:40;100821.81;;;18.17;100.00
51460;BME280;37534;39.772;2.718;2023-06-10T04:50:06;100810.03;;;18.10;100.00
51460;BME280;37534;39.772;2.718;2023-06-10T04:52:32;100808.97;;;17.98;100.00
51460;BME280;37534;39.772;2.718;2023-06-10T04:54:59;100812.41;;;17.98;100.00
51460;BME280;37534;39.772;2.718;2023-06-10T04:57:24;100811.75;;;17.95;100.00
51460;BME280;37534;39.772;2.718;2023-06-10T04:59:50;100816.97;;;17.95;100.00
51460;BME280;37534;39.772;2.718;2023-06-10T05:02:15;100798.94;;;17.90;100.00
51460;BME280;37534;39.772;2.718;2023-06-10T05:04:41;100814.06;;;17.99;100.00
51460;BME280;37534;39.772;2.718;2023-06-10T05:07:06;100809.44;;;18.04;100.00
51460;BME280;37534;39.772;2.718;2023-06-10T05:09:32;100797.34;;;18.03;100.00
51460;BME280;37534;39.772;2.718;2023-06-10T05:11:58;100802.78;;;18.15;100.00
51460;BME280;37534;39.772;2.718;2023-06-10T05:14:23;100802.78;;;18.15;100.00
51460;BME280;37534;39.772;2.718;2023-06-10T05:16:49;100796.72;;;18.30;100.00
51460;BME280;37534;39.772;2.718;2023-06-10T05:19:15;100795.25;;;18.40;100.00
51460;BME280;37534;39.772;2.718;2023-06-10T05:21:44;100795.50;;;18.36;100.00
51460;BME280;37534;39.772;2.718;2023-06-10T05:24:09;100796.19;;;18.39;100.00
51460;BME280;37534;39.772;2.718;2023-06-10T05:26:35;100806.38;;;18.44;100.00
51460;BME280;37534;39.772;2.718;2023-06-10T05:29:04;100789.66;;;18.47;100.00
51460;BME280;37534;39.772;2.718;2023-06-10T05:31:29;100802.97;;;18.72;100.00
51460;BME280;37534;39.772;2.718;2023-06-10T05:33:55;100807.34;;;18.88;100.00
51460;BME280;37534;39.772;2.718;2023-06-10T05:36:20;100801.19;;;19.03;100.00
51460;BME280;37534;39.772;2.718;2023-06-10T05:38:46;100808.75;;;19.22;100.00
51460;BME280;37534;39.772;2.718;2023-06-10T05:41:12;100805.88;;;19.27;100.00
51460;BME280;37534;39.772;2.718;2023-06-10T05:43:37;100805.38;;;19.34;100.00
51460;BME280;37534;39.772;2.718;2023-06-10T05:46:03;100814.56;;;19.56;100.00
51460;BME280;37534;39.772;2.718;2023-06-10T05:48:28;100802.66;;;19.65;100.00
51460;BME280;37534;39.772;2.718;2023-06-10T05:50:54;100805.81;;;19.84;100.00
51460;BME280;37534;39.772;2.718;2023-06-10T05:53:19;100817.56;;;20.06;100.00
51460;BME280;37534;39.772;2.718;2023-06-10T05:55:45;100808.38;;;20.13;100.00
51460;BME280;37534;39.772;2.718;2023-06-10T05:58:13;100802.22;;;20.27;100.00
51460;BME280;37534;39.772;2.718;2023-06-10T06:00:39;100801.47;;;20.52;100.00
51460;BME280;37534;39.772;2.718;2023-06-10T06:03:09;100807.06;;;20.73;100.00
51460;BME280;37534;39.772;2.718;2023-06-10T06:05:35;100803.75;;;20.84;100.00
51460;BME280;37534;39.772;2.718;2023-06-10T06:08:03;100808.66;;;21.01;100.00
51460;BME280;37534;39.772;2.718;2023-06-10T06:10:29;100814.84;;;21.13;100.00
51460;BME280;37534;39.772;2.718;2023-06-10T06:12:55;100814.00;;;21.25;100.00
51460;BME280;37534;39.772;2.718;2023-06-10T06:15:20;100811.25;;;21.40;100.00
51460;BME280;37534;39.772;2.718;2023-06-10T06:17:46;100822.06;;;21.61;100.00
51460;BME280;37534;39.772;2.718;2023-06-10T06:20:11;100826.50;;;21.84;100.00
51460;BME280;37534;39.772;2.718;2023-06-10T06:22:37;100823.50;;;22.02;100.00
51460;BME280;37534;39.772;2.718;2023-06-10T06:25:03;100823.81;;;22.10;100.00
51460;BME280;37534;39.772;2.718;2023-06-10T06:27:28;100827.19;;;22.24;100.00
51460;BME280;37534;39.772;2.718;2023-06-10T06:29:54;100831.38;;;22.39;100.00
51460;BME280;37534;39.772;2.718;2023-06-10T06:32:20;100832.00;;;22.54;100.00
51460;BME280;37534;39.772;2.718;2023-06-10T06:34:47;100829.78;;;22.72;100.00
51460;BME280;37534;39.772;2.718;2023-06-10T06:37:14;100838.44;;;22.96;100.00
51460;BME280;37534;39.772;2.718;2023-06-10T06:39:40;100837.22;;;23.13;100.00
51460;BME280;37534;39.772;2.718;2023-06-10T06:42:06;100845.25;;;23.34;100.00
51460;BME280;37534;39.772;2.718;2023-06-10T06:44:31;100855.63;;;23.59;98.42
51460;BME280;37534;39.772;2.718;2023-06-10T06:46:57;100853.84;;;23.82;99.63
51460;BME280;37534;39.772;2.718;2023-06-10T06:49:22;100846.38;;;23.98;98.63
51460;BME280;37534;39.772;2.718;2023-06-10T06:51:48;100851.50;;;24.11;90.96
51460;BME280;37534;39.772;2.718;2023-06-10T06:54:13;100850.06;;;24.18;90.55
51460;BME280;37534;39.772;2.718;2023-06-10T06:56:39;100860.41;;;24.31;92.08
51460;BME280;37534;39.772;2.718;2023-06-10T06:59:04;100855.56;;;24.47;92.49
51460;BME280;37534;39.772;2.718;2023-06-10T07:01:33;100856.97;;;24.63;92.75
51460;BME280;37534;39.772;2.718;2023-06-10T07:03:58;100854.25;;;24.74;90.91
51460;BME280;37534;39.772;2.718;2023-06-10T07:06:24;100859.75;;;24.82;88.82
51460;BME280;37534;39.772;2.718;2023-06-10T07:08:51;100857.84;;;24.94;87.96
51460;BME280;37534;39.772;2.718;2023-06-10T07:11:16;100869.06;;;25.08;87.54
51460;BME280;37534;39.772;2.718;2023-06-10T07:13:43;100864.03;;;25.26;86.21
51460;BME280;37534;39.772;2.718;2023-06-10T07:16:08;100862.09;;;25.28;84.61
51460;BME280;37534;39.772;2.718;2023-06-10T07:18:34;100862.03;;;25.39;83.27
51460;BME280;37534;39.772;2.718;2023-06-10T07:20:59;100864.38;;;25.42;81.56
51460;BME280;37534;39.772;2.718;2023-06-10T07:23:25;100853.69;;;25.43;82.22
51460;BME280;37534;39.772;2.718;2023-06-10T07:25:50;100854.56;;;25.54;81.57
51460;BME280;37534;39.772;2.718;2023-06-10T07:28:16;100852.94;;;25.63;81.79
51460;BME280;37534;39.772;2.718;2023-06-10T07:30:41;100855.88;;;25.79;81.18
51460;BME280;37534;39.772;2.718;2023-06-10T07:33:07;100852.16;;;25.91;79.31
51460;BME280;37534;39.772;2.718;2023-06-10T07:35:33;100857.34;;;26.03;77.97
51460;BME280;37534;39.772;2.718;2023-06-10T07:37:58;100859.31;;;26.20;78.50
51460;BME280;37534;39.772;2.718;2023-06-10T07:40:24;100859.19;;;26.41;76.60
51460;BME280;37534;39.772;2.718;2023-06-10T07:42:50;100850.00;;;26.55;74.75
51460;BME280;37534;39.772;2.718;2023-06-10T07:45:15;100845.25;;;26.68;74.04
51460;BME280;37534;39.772;2.718;2023-06-10T07:47:42;100857.50;;;26.89;73.87
51460;BME280;37534;39.772;2.718;2023-06-10T07:50:08;100850.25;;;26.91;69.38
51460;BME280;37534;39.772;2.718;2023-06-10T07:52:34;100852.44;;;27.05;69.34
51460;BME280;37534;39.772;2.718;2023-06-10T07:55:00;100847.06;;;27.25;69.84
51460;BME280;37534;39.772;2.718;2023-06-10T07:57:25;100862.09;;;27.44;69.29
51460;BME280;37534;39.772;2.718;2023-06-10T07:59:51;100861.16;;;27.63;67.98
51460;BME280;37534;39.772;2.718;2023-06-10T08:02:17;100868.31;;;27.80;65.98
51460;BME280;37534;39.772;2.718;2023-06-10T08:04:42;100849.69;;;27.72;66.24
51460;BME280;37534;39.772;2.718;2023-06-10T08:07:08;100857.25;;;27.95;64.80
51460;BME280;37534;39.772;2.718;2023-06-10T08:09:33;100871.09;;;28.06;64.33
51460;BME280;37534;39.772;2.718;2023-06-10T08:12:00;100869.00;;;28.10;65.16
51460;BME280;37534;39.772;2.718;2023-06-10T08:14:25;100863.81;;;27.91;62.14
51460;BME280;37534;39.772;2.718;2023-06-10T08:16:51;100869.13;;;27.91;62.69
51460;BME280;37534;39.772;2.718;2023-06-10T08:19:16;100866.47;;;27.91;63.17
51460;BME280;37534;39.772;2.718;2023-06-10T08:21:42;100877.84;;;28.01;62.96
51460;BME280;37534;39.772;2.718;2023-06-10T08:24:08;100870.59;;;28.21;62.62
51460;BME280;37534;39.772;2.718;2023-06-10T08:26:34;100868.69;;;28.31;61.94
51460;BME280;37534;39.772;2.718;2023-06-10T08:28:59;100880.44;;;28.47;62.75
51460;BME280;37534;39.772;2.718;2023-06-10T08:31:25;100877.31;;;28.51;63.23
51460;BME280;37534;39.772;2.718;2023-06-10T08:33:51;100879.56;;;28.56;63.57
51460;BME280;37534;39.772;2.718;2023-06-10T08:36:16;100891.06;;;28.65;64.47
51460;BME280;37534;39.772;2.718;2023-06-10T08:38:42;100899.47;;;28.78;63.86
51460;BME280;37534;39.772;2.718;2023-06-10T08:41:09;100896.28;;;28.92;62.51
51460;BME280;37534;39.772;2.718;2023-06-10T08:44:17;100900.31;;;29.05;62.65
51460;BME280;37534;39.772;2.718;2023-06-10T08:46:47;100896.63;;;29.15;63.57
51460;BME280;37534;39.772;2.718;2023-06-10T08:49:19;100912.56;;;29.15;62.96
51460;BME280;37534;39.772;2.718;2023-06-10T08:51:49;100913.81;;;29.11;61.51
51460;BME280;37534;39.772;2.718;2023-06-10T08:54:18;100915.13;;;29.07;62.62
51460;BME280;37534;39.772;2.718;2023-06-10T08:56:50;100918.41;;;28.83;63.56
51460;BME280;37534;39.772;2.718;2023-06-10T08:59:16;100927.03;;;28.59;63.12
51460;BME280;37534;39.772;2.718;2023-06-10T09:01:43;100926.81;;;28.42;64.85
51460;BME280;37534;39.772;2.718;2023-06-10T09:04:10;100927.81;;;28.23;64.67
51460;BME280;37534;39.772;2.718;2023-06-10T09:06:37;100934.06;;;28.04;64.10
51460;BME280;37534;39.772;2.718;2023-06-10T09:09:05;100939.81;;;28.00;64.50
51460;BME280;37534;39.772;2.718;2023-06-10T09:11:32;100936.66;;;27.86;64.81
51460;BME280;37534;39.772;2.718;2023-06-10T09:13:57;100941.44;;;27.73;66.32
51460;BME280;37534;39.772;2.718;2023-06-10T09:16:24;100935.53;;;27.61;66.31
51460;BME280;37534;39.772;2.718;2023-06-10T09:18:50;100944.16;;;27.63;66.49
51460;BME280;37534;39.772;2.718;2023-06-10T09:21:22;100951.28;;;27.63;66.80
51460;BME280;37534;39.772;2.718;2023-06-10T09:23:48;100943.50;;;27.52;67.83
51460;BME280;37534;39.772;2.718;2023-06-10T09:26:13;100961.19;;;27.61;67.10
51460;BME280;37534;39.772;2.718;2023-06-10T09:28:39;100951.91;;;27.75;68.34
51460;BME280;37534;39.772;2.718;2023-06-10T09:31:07;100953.63;;;28.03;67.07
51460;BME280;37534;39.772;2.718;2023-06-10T09:33:37;100945.88;;;28.38;65.30
51460;BME280;37534;39.772;2.718;2023-06-10T09:36:06;100949.31;;;28.66;64.13
51460;BME280;37534;39.772;2.718;2023-06-10T09:38:34;100952.34;;;28.89;62.52
51460;BME280;37534;39.772;2.718;2023-06-10T09:41:00;100959.59;;;29.05;62.01
51460;BME280;37534;39.772;2.718;2023-06-10T09:43:39;100952.75;;;29.20;62.66
51460;BME280;37534;39.772;2.718;2023-06-10T09:46:05;100962.84;;;29.43;62.82
51460;BME280;37534;39.772;2.718;2023-06-10T09:48:34;100943.00;;;29.55;62.91
51460;BME280;37534;39.772;2.718;2023-06-10T09:51:00;100965.25;;;29.81;62.25
51460;BME280;37534;39.772;2.718;2023-06-10T09:53:26;100955.00;;;29.94;60.80
51460;BME280;37534;39.772;2.718;2023-06-10T09:55:52;100952.34;;;30.02;60.25
51460;BME280;37534;39.772;2.718;2023-06-10T09:58:17;100956.72;;;30.11;59.21
51460;BME280;37534;39.772;2.718;2023-06-10T10:00:43;100956.56;;;30.21;59.27
51460;BME280;37534;39.772;2.718;2023-06-10T10:03:08;100965.41;;;30.30;59.87
51460;BME280;37534;39.772;2.718;2023-06-10T10:05:34;100968.78;;;30.48;56.80
51460;BME280;37534;39.772;2.718;2023-06-10T10:07:59;100968.13;;;30.38;55.37
51460;BME280;37534;39.772;2.718;2023-06-10T10:10:25;100957.31;;;30.48;55.61
51460;BME280;37534;39.772;2.718;2023-06-10T10:12:54;100965.16;;;30.66;56.17
51460;BME280;37534;39.772;2.718;2023-06-10T10:15:25;100970.81;;;30.79;54.04
51460;BME280;37534;39.772;2.718;2023-06-10T10:20:29;100974.81;;;31.24;51.48
51460;BME280;37534;39.772;2.718;2023-06-10T10:22:57;100977.47;;;31.24;49.96
51460;BME280;37534;39.772;2.718;2023-06-10T10:25:25;100976.28;;;31.35;49.93
51460;BME280;37534;39.772;2.718;2023-06-10T10:28:08;100985.78;;;31.38;50.44
51460;BME280;37534;39.772;2.718;2023-06-10T10:30:42;100979.47;;;31.14;49.59
51460;BME280;37534;39.772;2.718;2023-06-10T10:33:32;100983.97;;;30.81;51.27
51460;BME280;37534;39.772;2.718;2023-06-10T10:36:00;100969.47;;;30.50;50.72
51460;BME280;37534;39.772;2.718;2023-06-10T10:38:28;100985.94;;;30.46;52.30
51460;BME280;37534;39.772;2.718;2023-06-10T10:40:54;100965.50;;;30.04;53.33
51460;BME280;37534;39.772;2.718;2023-06-10T10:43:25;100986.41;;;29.90;54.67
51460;BME280;37534;39.772;2.718;2023-06-10T10:46:12;100997.91;;;29.73;55.02
51460;BME280;37534;39.772;2.718;2023-06-10T10:48:39;100996.31;;;29.54;57.72
51460;BME280;37534;39.772;2.718;2023-06-10T10:51:07;101011.88;;;29.41;57.28
51460;BME280;37534;39.772;2.718;2023-06-10T10:53:32;101009.78;;;29.26;58.99
51460;BME280;37534;39.772;2.718;2023-06-10T10:59:13;101006.22;;;29.17;64.51
51460;BME280;37534;39.772;2.718;2023-06-10T11:01:43;101018.72;;;29.25;64.97
51460;BME280;37534;39.772;2.718;2023-06-10T11:04:12;101019.41;;;29.09;64.50
51460;BME280;37534;39.772;2.718;2023-06-10T11:06:38;101025.84;;;29.07;64.83
51460;BME280;37534;39.772;2.718;2023-06-10T11:09:25;101014.38;;;29.06;65.92
51460;BME280;37534;39.772;2.718;2023-06-10T11:11:52;101010.75;;;29.07;64.13
51460;BME280;37534;39.772;2.718;2023-06-10T11:14:31;101012.34;;;29.18;64.93
51460;BME280;37534;39.772;2.718;2023-06-10T11:16:58;101004.97;;;29.30;65.82
51460;BME280;37534;39.772;2.718;2023-06-10T11:19:37;101010.19;;;29.39;65.92
51460;BME280;37534;39.772;2.718;2023-06-10T11:22:07;101000.81;;;29.80;65.76
51460;BME280;37534;39.772;2.718;2023-06-10T11:24:33;100993.97;;;30.20;67.07
51460;BME280;37534;39.772;2.718;2023-06-10T11:27:28;100984.78;;;30.57;62.79
51460;BME280;37534;39.772;2.718;2023-06-10T11:32:33;100985.97;;;30.87;57.62
51460;BME280;37534;39.772;2.718;2023-06-10T11:35:02;100990.16;;;30.98;56.76
51460;BME280;37534;39.772;2.718;2023-06-10T11:37:28;100990.16;;;30.98;56.29
51460;BME280;37534;39.772;2.718;2023-06-10T11:39:54;100987.00;;;31.02;58.35
51460;BME280;37534;39.772;2.718;2023-06-10T11:42:21;100972.53;;;30.97;58.09
51460;BME280;37534;39.772;2.718;2023-06-10T11:44:51;100975.13;;;30.80;61.56
51460;BME280;37534;39.772;2.718;2023-06-10T11:47:18;100966.16;;;30.89;61.77
51460;BME280;37534;39.772;2.718;2023-06-10T11:49:44;100968.84;;;31.06;60.52
51460;BME280;37534;39.772;2.718;2023-06-10T11:52:10;100958.19;;;30.98;59.72
51460;BME280;37534;39.772;2.718;2023-06-10T11:54:36;100952.38;;;30.94;59.74
51460;BME280;37534;39.772;2.718;2023-06-10T11:57:02;100965.84;;;31.01;58.59
51460;BME280;37534;39.772;2.718;2023-06-10T11:59:33;100958.31;;;31.21;59.22
51460;BME280;37534;39.772;2.718;2023-06-10T12:01:59;100954.50;;;31.15;61.68
51460;BME280;37534;39.772;2.718;2023-06-10T12:04:24;100961.84;;;31.05;63.49
51460;BME280;37534;39.772;2.718;2023-06-10T12:06:53;100957.66;;;30.78;65.36
51460;BME280;37534;39.772;2.718;2023-06-10T12:09:28;100960.31;;;30.37;68.37
51460;BME280;37534;39.772;2.718;2023-06-10T12:12:04;100951.47;;;30.44;73.00
51460;BME280;37534;39.772;2.718;2023-06-10T12:17:17;100947.50;;;30.48;71.96
51460;BME280;37534;39.772;2.718;2023-06-10T12:19:43;100947.16;;;30.51;72.39
51460;BME280;37534;39.772;2.718;2023-06-10T12:22:09;100936.53;;;30.51;72.35
51460;BME280;37534;39.772;2.718;2023-06-10T12:24:56;100934.19;;;30.48;70.91
51460;BME280;37534;39.772;2.718;2023-06-10T12:27:23;100939.84;;;30.62;71.62
51460;BME280;37534;39.772;2.718;2023-06-10T12:29:52;100944.50;;;30.68;71.00
51460;BME280;37534;39.772;2.718;2023-06-10T12:32:19;100931.53;;;30.57;72.50
51460;BME280;37534;39.772;2.718;2023-06-10T12:34:45;100927.53;;;30.52;74.62
51460;BME280;37534;39.772;2.718;2023-06-10T12:37:12;100933.19;;;30.66;74.66
51460;BME280;37534;39.772;2.718;2023-06-10T12:39:42;100935.53;;;30.61;72.74
51460;BME280;37534;39.772;2.718;2023-06-10T12:42:12;100919.47;;;30.20;76.40
51460;BME280;37534;39.772;2.718;2023-06-10T12:44:40;100931.84;;;30.37;74.90
51460;BME280;37534;39.772;2.718;2023-06-10T12:47:13;100919.50;;;30.28;72.71
51460;BME280;37534;39.772;2.718;2023-06-10T12:49:39;100930.47;;;30.25;75.52
51460;BME280;37534;39.772;2.718;2023-06-10T12:52:05;100924.81;;;30.28;76.70
51460;BME280;37534;39.772;2.718;2023-06-10T12:54:32;100938.84;;;30.38;76.15
51460;BME280;37534;39.772;2.718;2023-06-10T12:56:57;100942.84;;;30.50;75.35
51460;BME280;37534;39.772;2.718;2023-06-10T12:59:23;100936.84;;;30.57;76.77
51460;BME280;37534;39.772;2.718;2023-06-10T13:01:52;100948.81;;;30.44;75.35